Terminal Aerodrome Forecast
Issued by NWS

Home | Current Version | Previous Version | Text Only | Print | Product List | Glossary On
Versions: 1 2 3 4 5 6 7 8 9 10 11 12 13 14 15 16 17 18 19 20 21
100
FTUS41 KBTV 101251 AAB
TAFMPV
TAF AMD
KMPV 101251Z 1013/1112 VRB03KT P6SM VCSH SCT025 OVC035
      TEMPO 1013/1016 2SM -SN BR BKN025 OVC035
     FM101600 18004KT P6SM VCSH OVC025
     FM102000 24004KT 2SM -SN BR OVC018
     FM110400 29004KT 3SM -SN BR OVC015=

USA.gov is the U.S. government's official web portal to all federal, state and local government web resources and services.